| time (UTC) | temp F | wind direction | speed MPH | gust MPH | rain 1hr in | rain 24hr in | rain mn in | humidity % | barometer mb |
| 20260507222946 | 76 | 248 | 2.0 | 2.0 | 0.00 | 0.00 | 0.19 | 90 | 1009.0 |
| 20260507222446 | 76 | 236 | 1.0 | 1.0 | 0.00 | 0.00 | 0.19 | 90 | 1009.0 |
| 20260507221947 | 76 | 235 | 1.0 | 1.0 | 0.00 | 0.00 | 0.19 | 90 | 1009.0 |
| 20260507221446 | 76 | 241 | 0.0 | 0.0 | 0.00 | 0.00 | 0.19 | 90 | 1009.0 |
| 20260507220946 | 76 | 263 | 0.0 | 1.0 | 0.00 | 0.00 | 0.19 | 90 | 1009.0 |
| 20260507220446 | 75 | 265 | 0.0 | 0.0 | 0.00 | 0.00 | 0.19 | 91 | 1009.0 |
| 20260507215947 | 75 | 267 | 0.0 | 1.0 | 0.00 | 0.00 | 0.19 | 91 | 1009.0 |
| 20260507215446 | 75 | 267 | 1.0 | 1.0 | 0.00 | 0.00 | 0.19 | 91 | 1009.0 |
| 20260507214946 | 75 | 267 | 1.0 | 2.0 | 0.00 | 0.00 | 0.19 | 91 | 1009.0 |
| 20260507214446 | 75 | 264 | 1.0 | 1.0 | 0.00 | 0.00 | 0.19 | 91 | 1009.0 |
| 20260507213946 | 75 | 299 | 1.0 | 2.0 | 0.00 | 0.00 | 0.19 | 90 | 1009.0 |
| 20260507213446 | 75 | 287 | 1.0 | 2.0 | 0.00 | 0.00 | 0.19 | 90 | 1009.0 |
| 20260507212947 | 75 | 234 | 1.0 | 1.0 | 0.00 | 0.00 | 0.19 | 90 | 1009.0 |
| 20260507212447 | 76 | 220 | 0.0 | 1.0 | 0.00 | 0.00 | 0.19 | 89 | 1009.0 |
| 20260507211946 | 75 | 220 | 0.0 | 1.0 | 0.00 | 0.00 | 0.19 | 89 | 1009.0 |
| 20260507211446 | 75 | 200 | 0.0 | 0.0 | 0.00 | 0.00 | 0.19 | 88 | 1009.0 |
| 20260507210947 | 75 | 200 | 0.0 | 0.0 | 0.00 | 0.00 | 0.19 | 88 | 1009.0 |
| 20260507210448 | 75 | 200 | 0.0 | 0.0 | 0.00 | 0.00 | 0.19 | 88 | 1009.0 |
| 20260507205946 | 76 | 165 | 0.0 | 0.0 | 0.00 | 0.00 | 0.19 | 89 | 1009.0 |
| 20260507205446 | 76 | 164 | 0.0 | 0.0 | 0.00 | 0.00 | 0.19 | 88 | 1009.0 |
| 20260507204947 | 76 | 164 | 0.0 | 0.0 | 0.00 | 0.00 | 0.19 | 88 | 1009.0 |
| 20260507204447 | 76 | 164 | 0.0 | 0.0 | 0.00 | 0.00 | 0.19 | 90 | 1009.0 |
| 20260507203946 | 76 | 189 | 2.0 | 2.0 | 0.00 | 0.00 | 0.19 | 90 | 1009.0 |
| 20260507203446 | 76 | 187 | 2.0 | 3.0 | 0.00 | 0.00 | 0.19 | 89 | 1009.0 |
| 20260507202946 | 76 | 168 | 2.0 | 3.0 | 0.05 | 0.00 | 0.19 | 89 | 1009.0 |
| 20260507202446 | 76 | 158 | 3.0 | 4.0 | 0.05 | 0.00 | 0.19 | 89 | 1009.0 |
| 20260507201947 | 76 | 181 | 2.0 | 2.0 | 0.00 | 0.00 | 0.18 | 90 | 1009.0 |
| 20260507201446 | 75 | 184 | 3.0 | 3.0 | 0.00 | 0.00 | 0.18 | 90 | 1009.0 |
| 20260507200946 | 75 | 142 | 3.0 | 4.0 | 0.00 | 0.00 | 0.18 | 90 | 1009.0 |
| 20260507200447 | 75 | 162 | 3.0 | 3.0 | 0.00 | 0.00 | 0.18 | 90 | 1009.0 |
| 20260507195947 | 75 | 160 | 2.0 | 2.0 | 0.00 | 0.00 | 0.18 | 91 | 1009.0 |
| 20260507195446 | 75 | 152 | 1.0 | 1.0 | 0.00 | 0.00 | 0.18 | 91 | 1009.0 |
| 20260507194947 | 75 | 156 | 1.0 | 1.0 | 0.00 | 0.00 | 0.18 | 91 | 1009.0 |
| 20260507194446 | 75 | 153 | 1.0 | 1.0 | 0.00 | 0.00 | 0.18 | 91 | 1009.0 |
| 20260507193946 | 76 | 161 | 2.0 | 3.0 | 0.00 | 0.00 | 0.18 | 91 | 1009.0 |
| 20260507193447 | 76 | 225 | 0.0 | 1.0 | 0.00 | 0.00 | 0.18 | 91 | 1009.0 |
| 20260507192946 | 76 | 228 | 0.0 | 0.0 | 0.00 | 0.00 | 0.18 | 91 | 1009.0 |
| 20260507192446 | 75 | 253 | 1.0 | 1.0 | 0.00 | 0.00 | 0.18 | 91 | 1010.0 |
| 20260507191947 | 76 | 284 | 0.0 | 0.0 | 0.00 | 0.00 | 0.18 | 91 | 1010.0 |
| 20260507191446 | 75 | 177 | 1.0 | 2.0 | 0.00 | 0.00 | 0.18 | 91 | 1010.0 |
| 20260507190947 | 75 | 244 | 4.0 | 6.0 | 0.00 | 0.00 | 0.18 | 91 | 1010.0 |
| 20260507190446 | 76 | 251 | 3.0 | 4.0 | 0.00 | 0.00 | 0.18 | 91 | 1010.0 |
| 20260507185947 | 76 | 231 | 1.0 | 2.0 | 0.00 | 0.00 | 0.18 | 91 | 1010.0 |
| 20260507185447 | 76 | 232 | 2.0 | 3.0 | 0.00 | 0.00 | 0.18 | 90 | 1010.0 |
| 20260507184946 | 75 | 235 | 2.0 | 3.0 | 0.47 | 0.00 | 0.18 | 89 | 1010.0 |
| 20260507184448 | 76 | 263 | 5.0 | 7.0 | 1.02 | 0.00 | 0.18 | 89 | 1010.0 |
| 20260507183946 | 77 | 207 | 1.0 | 2.0 | 0.66 | 0.00 | 0.11 | 88 | 1010.0 |
| 20260507183446 | 78 | 152 | 2.0 | 3.0 | 0.07 | 0.00 | 0.01 | 86 | 1010.0 |
| 20260507182948 | 79 | 152 | 2.0 | 3.0 | 0.00 | 0.00 | 0.00 | 84 | 1010.0 |
| 20260507182447 | 79 | 147 | 7.0 | 8.0 | 0.00 | 0.00 | 0.00 | 81 | 1010.0 |
| 20260507181946 | 80 | 126 | 5.0 | 7.0 | 0.00 | 0.00 | 0.00 | 82 | 1010.0 |
| 20260507181447 | 80 | 119 | 4.0 | 6.0 | 0.00 | 0.00 | 0.00 | 83 | 1010.0 |
| 20260507180946 | 80 | 206 | 2.0 | 4.0 | 0.00 | 0.00 | 0.00 | 84 | 1010.0 |
| 20260507180447 | 80 | 131 | 8.0 | 9.0 | 0.00 | 0.00 | 0.00 | 84 | 1010.0 |
| 20260507175947 | 81 | 164 | 7.0 | 10.0 | 0.00 | 0.00 | 0.00 | 83 | 1010.0 |
| 20260507175447 | 81 | 185 | 4.0 | 6.0 | 0.00 | 0.00 | 0.00 | 82 | 1010.0 |
| 20260507174947 | 82 | 191 | 8.0 | 13.0 | 0.00 | 0.00 | 0.00 | 80 | 1010.0 |
| 20260507174447 | 83 | 184 | 5.0 | 7.0 | 0.00 | 0.00 | 0.00 | 78 | 1010.0 |
| 20260507173946 | 84 | 152 | 6.0 | 10.0 | 0.00 | 0.00 | 0.00 | 75 | 1009.0 |
| 20260507173446 | 84 | 130 | 6.0 | 8.0 | 0.00 | 0.00 | 0.00 | 74 | 1009.0 |
| 20260507172946 | 84 | 122 | 4.0 | 4.0 | 0.00 | 0.00 | 0.00 | 73 | 1010.0 |
| 20260507172446 | 85 | 170 | 3.0 | 4.0 | 0.00 | 0.00 | 0.00 | 74 | 1010.0 |
| 20260507171948 | 86 | 184 | 4.0 | 6.0 | 0.00 | 0.00 | 0.00 | 74 | 1010.0 |
| 20260507171447 | 86 | 155 | 6.0 | 8.0 | 0.00 | 0.00 | 0.00 | 74 | 1009.0 |
| 20260507170946 | 86 | 241 | 2.0 | 3.0 | 0.00 | 0.00 | 0.00 | 74 | 1009.0 |
| 20260507170447 | 85 | 192 | 3.0 | 4.0 | 0.00 | 0.00 | 0.00 | 75 | 1009.0 |
| 20260507165946 | 84 | 140 | 3.0 | 3.0 | 0.00 | 0.00 | 0.00 | 78 | 1009.0 |
| 20260507165447 | 85 | 127 | 2.0 | 2.0 | 0.00 | 0.00 | 0.00 | 76 | 1009.0 |
| 20260507164946 | 84 | 346 | 0.0 | 0.0 | 0.00 | 0.00 | 0.00 | 76 | 1008.0 |
| 20260507164447 | 84 | 345 | 0.0 | 0.0 | 0.00 | 0.00 | 0.00 | 77 | 1008.0 |
| 20260507163956 | 84 | 345 | 1.0 | 2.0 | 0.00 | 0.00 | 0.00 | 77 | 1008.0 |
| 20260507163446 | 85 | 346 | 2.0 | 2.0 | 0.00 | 0.00 | 0.00 | 77 | 1008.0 |
| 20260507162947 | 85 | 6 | 1.0 | 1.0 | 0.00 | 0.00 | 0.00 | 76 | 1008.0 |
| 20260507162447 | 85 | 10 | 2.0 | 3.0 | 0.00 | 0.00 | 0.00 | 74 | 1008.0 |
| 20260507161946 | 86 | 298 | 2.0 | 2.0 | 0.00 | 0.00 | 0.00 | 73 | 1008.0 |
| 20260507161446 | 85 | 296 | 0.0 | 1.0 | 0.00 | 0.00 | 0.00 | 73 | 1009.0 |
| 20260507160946 | 85 | 295 | 0.0 | 0.0 | 0.00 | 0.00 | 0.00 | 73 | 1008.0 |
| 20260507160446 | 85 | 295 | 1.0 | 1.0 | 0.00 | 0.00 | 0.00 | 74 | 1009.0 |
| 20260507155946 | 85 | 296 | 1.0 | 1.0 | 0.00 | 0.00 | 0.00 | 74 | 1008.0 |
| 20260507155447 | 85 | 295 | 0.0 | 0.0 | 0.00 | 0.00 | 0.00 | 73 | 1008.0 |
| 20260507154946 | 85 | 296 | 1.0 | 1.0 | 0.00 | 0.00 | 0.00 | 74 | 1008.0 |
| 20260507154447 | 85 | 295 | 0.0 | 1.0 | 0.00 | 0.00 | 0.00 | 74 | 1008.0 |
| 20260507153500 | 85 | 295 | 0.0 | 1.0 | 0.00 | 0.00 | 0.00 | 73 | 1008.0 |
| 20260507152946 | 85 | 297 | 1.0 | 1.0 | 0.00 | 0.00 | 0.00 | 73 | 1008.0 |
| 20260507152447 | 85 | 305 | 0.0 | 1.0 | 0.00 | 0.00 | 0.00 | 75 | 1008.0 |
| 20260507151948 | 85 | 305 | 1.0 | 1.0 | 0.00 | 0.00 | 0.00 | 75 | 1008.0 |
| 20260507151447 | 85 | 302 | 1.0 | 1.0 | 0.00 | 0.00 | 0.00 | 76 | 1007.0 |
| 20260507150946 | 85 | 302 | 0.0 | 0.0 | 0.00 | 0.00 | 0.00 | 77 | 1008.0 |
| 20260507150447 | 85 | 304 | 0.0 | 1.0 | 0.00 | 0.00 | 0.00 | 77 | 1008.0 |
| 20260507145946 | 85 | 303 | 0.0 | 1.0 | 0.00 | 0.00 | 0.00 | 77 | 1007.0 |
| 20260507145447 | 86 | 62 | 0.0 | 1.0 | 0.00 | 0.00 | 0.00 | 76 | 1007.0 |
| 20260507144946 | 86 | 62 | 0.0 | 1.0 | 0.00 | 0.00 | 0.00 | 76 | 1007.0 |
| 20260507144446 | 86 | 63 | 1.0 | 1.0 | 0.00 | 0.00 | 0.00 | 75 | 1007.0 |
| 20260507143947 | 86 | 62 | 0.0 | 0.0 | 0.00 | 0.00 | 0.00 | 73 | 1007.0 |
| 20260507143446 | 86 | 63 | 0.0 | 1.0 | 0.00 | 0.00 | 0.00 | 72 | 1007.0 |
| 20260507142946 | 86 | 68 | 1.0 | 1.0 | 0.00 | 0.00 | 0.00 | 74 | 1007.0 |
| 20260507142446 | 86 | 70 | 0.0 | 1.0 | 0.00 | 0.00 | 0.00 | 74 | 1007.0 |
| 20260507141947 | 86 | 71 | 1.0 | 1.0 | 0.00 | 0.00 | 0.00 | 74 | 1007.0 |
| 20260507141452 | 87 | 71 | 1.0 | 1.0 | 0.00 | 0.00 | 0.00 | 73 | 1007.0 |
| 20260507140946 | 87 | 72 | 1.0 | 1.0 | 0.00 | 0.00 | 0.00 | 72 | 1007.0 |
| 20260507140447 | 87 | 72 | 0.0 | 0.0 | 0.00 | 0.00 | 0.00 | 71 | 1006.0 |
| 20260507135946 | 88 | 72 | 0.0 | 0.0 | 0.00 | 0.00 | 0.00 | 69 | 1006.0 |
| 20260507135447 | 89 | 72 | 0.0 | 0.0 | 0.00 | 0.00 | 0.00 | 68 | 1006.0 |
| 20260507134947 | 89 | 72 | 0.0 | 0.0 | 0.00 | 0.00 | 0.00 | 67 | 1006.0 |
| 20260507134446 | 89 | 72 | 0.0 | 0.0 | 0.00 | 0.00 | 0.00 | 64 | 1006.0 |
| 20260507133946 | 89 | 71 | 0.0 | 0.0 | 0.00 | 0.00 | 0.00 | 64 | 1006.0 |
| 20260507133447 | 90 | 71 | 0.0 | 0.0 | 0.00 | 0.00 | 0.00 | 63 | 1005.0 |
| 20260507132947 | 90 | 63 | 1.0 | 1.0 | 0.00 | 0.00 | 0.00 | 63 | 1006.0 |
| 20260507132448 | 90 | 87 | 1.0 | 2.0 | 0.00 | 0.00 | 0.00 | 63 | 1006.0 |
| 20260507131948 | 90 | 98 | 2.0 | 2.0 | 0.00 | 0.00 | 0.00 | 64 | 1005.0 |
| 20260507131447 | 90 | 117 | 2.0 | 2.0 | 0.00 | 0.00 | 0.00 | 63 | 1005.0 |
| 20260507130947 | 90 | 119 | 3.0 | 3.0 | 0.00 | 0.00 | 0.00 | 63 | 1005.0 |
| 20260507130449 | 90 | 122 | 2.0 | 2.0 | 0.00 | 0.00 | 0.00 | 63 | 1005.0 |
| 20260507125947 | 89 | 135 | 2.0 | 3.0 | 0.00 | 0.00 | 0.00 | 63 | 1005.0 |
| 20260507125446 | 90 | 141 | 2.0 | 2.0 | 0.00 | 0.00 | 0.00 | 64 | 1005.0 |
| 20260507124947 | 90 | 110 | 2.0 | 2.0 | 0.00 | 0.00 | 0.00 | 64 | 1005.0 |
| 20260507124446 | 90 | 144 | 2.0 | 2.0 | 0.00 | 0.00 | 0.00 | 63 | 1005.0 |
| 20260507123948 | 90 | 89 | 3.0 | 4.0 | 0.00 | 0.00 | 0.00 | 62 | 1005.0 |
| 20260507123447 | 90 | 103 | 3.0 | 4.0 | 0.00 | 0.00 | 0.00 | 62 | 1006.0 |
| 20260507122948 | 91 | 112 | 1.0 | 2.0 | 0.00 | 0.00 | 0.00 | 63 | 1005.0 |
| 20260507122447 | 91 | 102 | 3.0 | 4.0 | 0.00 | 0.00 | 0.00 | 61 | 1005.0 |
| 20260507121947 | 91 | 110 | 3.0 | 3.0 | 0.00 | 0.00 | 0.00 | 61 | 1005.0 |
| 20260507121446 | 91 | 107 | 4.0 | 4.0 | 0.00 | 0.00 | 0.00 | 60 | 1005.0 |
| 20260507120946 | 92 | 95 | 3.0 | 4.0 | 0.00 | 0.00 | 0.00 | 59 | 1005.0 |
| 20260507120447 | 92 | 114 | 4.0 | 4.0 | 0.00 | 0.00 | 0.00 | 59 | 1005.0 |
| 20260507115946 | 92 | 127 | 4.0 | 6.0 | 0.00 | 0.00 | 0.00 | 60 | 1005.0 |
| 20260507115447 | 92 | 115 | 4.0 | 6.0 | 0.00 | 0.00 | 0.00 | 59 | 1005.0 |
| 20260507114947 | 93 | 147 | 4.0 | 4.0 | 0.00 | 0.00 | 0.00 | 59 | 1005.0 |
| 20260507114446 | 92 | 115 | 1.0 | 2.0 | 0.00 | 0.00 | 0.00 | 59 | 1005.0 |
| 20260507113946 | 93 | 124 | 3.0 | 3.0 | 0.00 | 0.00 | 0.00 | 58 | 1005.0 |
| 20260507113447 | 93 | 107 | 0.0 | 1.0 | 0.00 | 0.00 | 0.00 | 59 | 1005.0 |
| 20260507112946 | 93 | 147 | 2.0 | 3.0 | 0.00 | 0.00 | 0.00 | 58 | 1005.0 |
| 20260507112446 | 92 | 98 | 1.0 | 2.0 | 0.00 | 0.00 | 0.00 | 59 | 1005.0 |
| 20260507111948 | 92 | 107 | 3.0 | 4.0 | 0.00 | 0.00 | 0.00 | 59 | 1005.0 |
| 20260507111447 | 93 | 134 | 1.0 | 2.0 | 0.00 | 0.00 | 0.00 | 58 | 1005.0 |
| 20260507110948 | 93 | 74 | 2.0 | 3.0 | 0.00 | 0.00 | 0.00 | 57 | 1005.0 |
| 20260507110446 | 93 | 132 | 3.0 | 3.0 | 0.00 | 0.00 | 0.00 | 57 | 1005.0 |
| 20260507105946 | 93 | 41 | 2.0 | 4.0 | 0.00 | 0.00 | 0.00 | 57 | 1005.0 |
| 20260507105446 | 93 | 62 | 3.0 | 4.0 | 0.00 | 0.00 | 0.00 | 57 | 1005.0 |
| 20260507104949 | 93 | 91 | 1.0 | 1.0 | 0.00 | 0.00 | 0.00 | 57 | 1005.0 |
| 20260507104446 | 93 | 121 | 1.0 | 1.0 | 0.00 | 0.00 | 0.00 | 58 | 1005.0 |
| 20260507103946 | 93 | 122 | 2.0 | 2.0 | 0.00 | 0.00 | 0.00 | 58 | 1005.0 |
| 20260507103446 | 93 | 64 | 3.0 | 3.0 | 0.00 | 0.00 | 0.00 | 58 | 1005.0 |
| 20260507102946 | 93 | 190 | 0.0 | 0.0 | 0.00 | 0.00 | 0.00 | 57 | 1005.0 |
| 20260507102446 | 93 | 92 | 1.0 | 2.0 | 0.00 | 0.00 | 0.00 | 57 | 1005.0 |
| 20260507101946 | 93 | 119 | 0.0 | 1.0 | 0.00 | 0.00 | 0.00 | 57 | 1006.0 |
| 20260507100946 | 93 | 18 | 0.0 | 0.0 | 0.00 | 0.00 | 0.00 | 57 | 1006.0 |
| 20260507100446 | 93 | 13 | 2.0 | 3.0 | 0.00 | 0.00 | 0.00 | 56 | 1006.0 |
| 20260507095947 | 94 | 194 | 0.0 | 0.0 | 0.00 | 0.00 | 0.00 | 56 | 1006.0 |
| 20260507095446 | 92 | 142 | 1.0 | 1.0 | 0.00 | 0.00 | 0.00 | 59 | 1006.0 |
| 20260507094946 | 92 | 138 | 4.0 | 4.0 | 0.00 | 0.00 | 0.00 | 58 | 1006.0 |
| 20260507094446 | 93 | 159 | 2.0 | 3.0 | 0.00 | 0.00 | 0.00 | 58 | 1006.0 |
| 20260507093947 | 93 | 87 | 3.0 | 3.0 | 0.00 | 0.00 | 0.00 | 56 | 1006.0 |
| 20260507093447 | 93 | 135 | 3.0 | 3.0 | 0.00 | 0.00 | 0.00 | 58 | 1006.0 |
| 20260507092946 | 93 | 105 | 2.0 | 2.0 | 0.00 | 0.00 | 0.00 | 57 | 1006.0 |
| 20260507092446 | 93 | 154 | 2.0 | 2.0 | 0.00 | 0.00 | 0.00 | 55 | 1006.0 |
| 20260507091947 | 93 | 351 | 0.0 | 1.0 | 0.00 | 0.00 | 0.00 | 55 | 1006.0 |
| 20260507091447 | 93 | 47 | 1.0 | 1.0 | 0.00 | 0.00 | 0.00 | 55 | 1006.0 |
| 20260507090946 | 94 | 8 | 4.0 | 4.0 | 0.00 | 0.00 | 0.00 | 54 | 1006.0 |
| 20260507090446 | 95 | 3 | 0.0 | 0.0 | 0.00 | 0.00 | 0.00 | 53 | 1006.0 |
| 20260507085946 | 96 | 257 | 1.0 | 1.0 | 0.00 | 0.00 | 0.00 | 53 | 1006.0 |
| 20260507085446 | 94 | 311 | 5.0 | 6.0 | 0.00 | 0.00 | 0.00 | 54 | 1006.0 |
| 20260507084946 | 94 | 20 | 2.0 | 3.0 | 0.00 | 0.00 | 0.00 | 54 | 1006.0 |
| 20260507084447 | 93 | 42 | 3.0 | 3.0 | 0.00 | 0.00 | 0.00 | 56 | 1006.0 |
| 20260507083948 | 94 | 18 | 2.0 | 2.0 | 0.00 | 0.00 | 0.00 | 56 | 1006.0 |
| 20260507083447 | 93 | 40 | 4.0 | 4.0 | 0.00 | 0.00 | 0.00 | 56 | 1006.0 |
| 20260507082947 | 93 | 29 | 1.0 | 2.0 | 0.00 | 0.00 | 0.00 | 56 | 1007.0 |
| 20260507082446 | 94 | 344 | 4.0 | 4.0 | 0.00 | 0.00 | 0.00 | 55 | 1007.0 |
| 20260507081946 | 94 | 307 | 4.0 | 4.0 | 0.00 | 0.00 | 0.00 | 56 | 1007.0 |
| 20260507081446 | 93 | 288 | 3.0 | 4.0 | 0.00 | 0.00 | 0.00 | 58 | 1007.0 |
| 20260507080946 | 94 | 299 | 1.0 | 2.0 | 0.00 | 0.00 | 0.00 | 56 | 1007.0 |
| 20260507080446 | 93 | 186 | 0.0 | 1.0 | 0.00 | 0.00 | 0.00 | 56 | 1007.0 |
| 20260507075946 | 93 | 264 | 2.0 | 3.0 | 0.00 | 0.00 | 0.00 | 56 | 1007.0 |
| 20260507075447 | 92 | 219 | 1.0 | 2.0 | 0.00 | 0.00 | 0.00 | 58 | 1007.0 |
| 20260507074946 | 93 | 22 | 3.0 | 3.0 | 0.00 | 0.00 | 0.00 | 58 | 1007.0 |
| 20260507074447 | 93 | 296 | 0.0 | 1.0 | 0.00 | 0.00 | 0.00 | 58 | 1007.0 |
| 20260507073949 | 92 | 67 | 1.0 | 1.0 | 0.00 | 0.00 | 0.00 | 58 | 1007.0 |
| 20260507073447 | 91 | 349 | 2.0 | 3.0 | 0.00 | 0.00 | 0.00 | 59 | 1008.0 |
| 20260507072947 | 92 | 217 | 0.0 | 0.0 | 0.00 | 0.00 | 0.00 | 58 | 1008.0 |
| 20260507072446 | 91 | 292 | 1.0 | 1.0 | 0.00 | 0.00 | 0.00 | 61 | 1008.0 |
| 20260507071947 | 91 | 264 | 1.0 | 1.0 | 0.00 | 0.00 | 0.00 | 60 | 1008.0 |
| 20260507071446 | 92 | 277 | 2.0 | 2.0 | 0.00 | 0.00 | 0.00 | 59 | 1008.0 |
| 20260507070946 | 91 | 328 | 3.0 | 3.0 | 0.00 | 0.00 | 0.00 | 60 | 1008.0 |
| 20260507070447 | 92 | 263 | 1.0 | 2.0 | 0.00 | 0.00 | 0.00 | 59 | 1008.0 |
| 20260507065946 | 92 | 20 | 0.0 | 1.0 | 0.00 | 0.00 | 0.00 | 59 | 1008.0 |
| 20260507065447 | 93 | 351 | 1.0 | 1.0 | 0.00 | 0.00 | 0.00 | 58 | 1009.0 |
| 20260507064946 | 93 | 312 | 4.0 | 4.0 | 0.00 | 0.00 | 0.00 | 59 | 1009.0 |
| 20260507064446 | 91 | 311 | 1.0 | 2.0 | 0.00 | 0.00 | 0.00 | 60 | 1009.0 |
| 20260507063946 | 91 | 358 | 4.0 | 6.0 | 0.00 | 0.00 | 0.00 | 62 | 1009.0 |
| 20260507063446 | 92 | 204 | 1.0 | 1.0 | 0.00 | 0.00 | 0.00 | 58 | 1009.0 |
| 20260507062946 | 92 | 265 | 2.0 | 2.0 | 0.00 | 0.00 | 0.00 | 61 | 1009.0 |
| 20260507062447 | 91 | 239 | 1.0 | 1.0 | 0.00 | 0.00 | 0.00 | 62 | 1009.0 |
| 20260507061946 | 90 | 268 | 0.0 | 1.0 | 0.00 | 0.00 | 0.00 | 64 | 1009.0 |
| 20260507061447 | 89 | 8 | 3.0 | 3.0 | 0.00 | 0.00 | 0.00 | 64 | 1009.0 |
| 20260507060947 | 89 | 251 | 3.0 | 3.0 | 0.00 | 0.00 | 0.00 | 66 | 1009.0 |
| 20260507060447 | 90 | 198 | 2.0 | 3.0 | 0.00 | 0.00 | 0.00 | 66 | 1010.0 |
| 20260507055947 | 90 | 244 | 1.0 | 1.0 | 0.00 | 0.00 | 0.00 | 65 | 1010.0 |
| 20260507055447 | 90 | 235 | 2.0 | 3.0 | 0.00 | 0.00 | 0.00 | 66 | 1010.0 |
| 20260507054946 | 89 | 321 | 1.0 | 1.0 | 0.00 | 0.00 | 0.00 | 68 | 1010.0 |
| 20260507054447 | 89 | 294 | 2.0 | 3.0 | 0.00 | 0.00 | 0.00 | 66 | 1010.0 |
| 20260507053946 | 90 | 227 | 1.0 | 1.0 | 0.00 | 0.00 | 0.00 | 66 | 1010.0 |
| 20260507053447 | 91 | 267 | 2.0 | 2.0 | 0.00 | 0.00 | 0.00 | 65 | 1010.0 |
| 20260507052946 | 89 | 231 | 1.0 | 1.0 | 0.00 | 0.00 | 0.00 | 66 | 1010.0 |
| 20260507052446 | 90 | 222 | 2.0 | 2.0 | 0.00 | 0.00 | 0.00 | 66 | 1010.0 |
| 20260507051948 | 89 | 231 | 1.0 | 1.0 | 0.00 | 0.00 | 0.00 | 66 | 1010.0 |
| 20260507051447 | 89 | 207 | 0.0 | 2.0 | 0.00 | 0.00 | 0.00 | 67 | 1010.0 |
| 20260507050947 | 87 | 121 | 1.0 | 1.0 | 0.00 | 0.00 | 0.00 | 71 | 1010.0 |
| 20260507050446 | 88 | 194 | 4.0 | 4.0 | 0.00 | 0.00 | 0.00 | 69 | 1010.0 |
| 20260507045946 | 86 | 27 | 0.0 | 1.0 | 0.00 | 0.00 | 0.00 | 72 | 1010.0 |
| 20260507045447 | 87 | 324 | 2.0 | 2.0 | 0.00 | 0.00 | 0.00 | 72 | 1010.0 |
| 20260507044946 | 89 | 271 | 0.0 | 0.0 | 0.00 | 0.00 | 0.00 | 71 | 1010.0 |
| 20260507044447 | 88 | 247 | 0.0 | 1.0 | 0.00 | 0.00 | 0.00 | 71 | 1010.0 |
| 20260507043946 | 87 | 246 | 1.0 | 1.0 | 0.00 | 0.00 | 0.00 | 71 | 1010.0 |
| 20260507043447 | 86 | 247 | 0.0 | 0.0 | 0.00 | 0.00 | 0.00 | 73 | 1011.0 |
| 20260507042946 | 86 | 242 | 2.0 | 2.0 | 0.00 | 0.00 | 0.00 | 73 | 1011.0 |
| 20260507042447 | 85 | 128 | 1.0 | 1.0 | 0.00 | 0.00 | 0.00 | 75 | 1011.0 |
| 20260507041946 | 86 | 139 | 2.0 | 3.0 | 0.00 | 0.00 | 0.00 | 74 | 1011.0 |
| 20260507041447 | 86 | 214 | 0.0 | 1.0 | 0.00 | 0.00 | 0.00 | 75 | 1011.0 |
| 20260507040947 | 86 | 125 | 3.0 | 3.0 | 0.00 | 0.00 | 0.00 | 74 | 1011.0 |
| 20260507040446 | 84 | 84 | 1.0 | 1.0 | 0.00 | 0.00 | 0.00 | 75 | 1011.0 |
| 20260507035946 | 86 | 89 | 0.0 | 1.0 | 0.00 | 0.00 | 0.00 | 73 | 1011.0 |
| 20260507035447 | 86 | 49 | 1.0 | 2.0 | 0.00 | 0.00 | 0.00 | 73 | 1011.0 |
| 20260507034948 | 85 | 337 | 3.0 | 3.0 | 0.00 | 0.00 | 0.00 | 76 | 1011.0 |
| 20260507034446 | 85 | 295 | 1.0 | 1.0 | 0.00 | 0.00 | 0.00 | 76 | 1011.0 |
| 20260507033947 | 85 | 339 | 0.0 | 1.0 | 0.00 | 0.00 | 0.00 | 77 | 1011.0 |
| 20260507033446 | 84 | 338 | 1.0 | 2.0 | 0.00 | 0.00 | 0.00 | 78 | 1011.0 |
| 20260507032946 | 84 | 336 | 2.0 | 3.0 | 0.00 | 0.00 | 0.00 | 79 | 1011.0 |
| 20260507032446 | 84 | 78 | 0.0 | 1.0 | 0.00 | 0.00 | 0.00 | 77 | 1011.0 |
| 20260507031946 | 84 | 36 | 1.0 | 1.0 | 0.00 | 0.00 | 0.00 | 78 | 1011.0 |
| 20260507031446 | 84 | 42 | 1.0 | 2.0 | 0.00 | 0.00 | 0.00 | 78 | 1011.0 |
| 20260507030946 | 84 | 0 | 2.0 | 2.0 | 0.00 | 0.00 | 0.00 | 79 | 1010.0 |
| 20260507030448 | 84 | 52 | 0.0 | 1.0 | 0.00 | 0.00 | 0.00 | 78 | 1010.0 |
| 20260507025947 | 84 | 337 | 0.0 | 0.0 | 0.00 | 0.00 | 0.00 | 79 | 1010.0 |
| 20260507025447 | 83 | 337 | 0.0 | 0.0 | 0.00 | 0.00 | 0.00 | 79 | 1011.0 |
| 20260507024947 | 83 | 337 | 1.0 | 2.0 | 0.00 | 0.00 | 0.00 | 81 | 1010.0 |
| 20260507024447 | 83 | 337 | 0.0 | 0.0 | 0.00 | 0.00 | 0.00 | 82 | 1010.0 |
| 20260507023946 | 82 | 16 | 0.0 | 0.0 | 0.00 | 0.00 | 0.00 | 83 | 1010.0 |
| 20260507023447 | 82 | 359 | 0.0 | 1.0 | 0.00 | 0.00 | 0.00 | 84 | 1010.0 |
| 20260507022947 | 82 | 5 | 0.0 | 0.0 | 0.00 | 0.00 | 0.00 | 85 | 1010.0 |
| 20260507022447 | 82 | 7 | 0.0 | 0.0 | 0.00 | 0.00 | 0.00 | 85 | 1010.0 |
| 20260507021947 | 81 | 8 | 0.0 | 0.0 | 0.00 | 0.00 | 0.00 | 85 | 1010.0 |
| 20260507021446 | 81 | 10 | 1.0 | 1.0 | 0.00 | 0.00 | 0.00 | 86 | 1010.0 |
| 20260507020946 | 81 | 337 | 2.0 | 2.0 | 0.00 | 0.00 | 0.00 | 86 | 1010.0 |
| 20260507020447 | 80 | 24 | 2.0 | 2.0 | 0.00 | 0.00 | 0.00 | 88 | 1010.0 |
| 20260507015948 | 80 | 21 | 2.0 | 3.0 | 0.00 | 0.00 | 0.00 | 88 | 1010.0 |
| 20260507015446 | 80 | 16 | 2.0 | 2.0 | 0.00 | 0.00 | 0.00 | 89 | 1010.0 |
| 20260507014946 | 80 | 334 | 1.0 | 2.0 | 0.00 | 0.00 | 0.00 | 89 | 1010.0 |
| 20260507014446 | 80 | 330 | 2.0 | 2.0 | 0.00 | 0.00 | 0.00 | 88 | 1010.0 |
| 20260507013946 | 80 | 323 | 1.0 | 2.0 | 0.00 | 0.00 | 0.00 | 89 | 1010.0 |
| 20260507013447 | 79 | 323 | 0.0 | 0.0 | 0.00 | 0.00 | 0.00 | 89 | 1010.0 |
| 20260507012956 | 79 | 323 | 1.0 | 1.0 | 0.00 | 0.00 | 0.00 | 90 | 1010.0 |
| 20260507012446 | 79 | 323 | 0.0 | 0.0 | 0.00 | 0.00 | 0.00 | 90 | 1009.0 |
| 20260507011947 | 78 | 323 | 0.0 | 0.0 | 0.00 | 0.00 | 0.00 | 92 | 1009.0 |
| 20260507011447 | 78 | 323 | 0.0 | 0.0 | 0.00 | 0.00 | 0.00 | 92 | 1009.0 |
| 20260507010446 | 78 | 323 | 0.0 | 1.0 | 0.00 | 0.00 | 0.00 | 92 | 1009.0 |
| 20260507005946 | 78 | 323 | 0.0 | 0.0 | 0.00 | 0.00 | 0.00 | 92 | 1009.0 |
| 20260507005446 | 78 | 323 | 0.0 | 0.0 | 0.00 | 0.00 | 0.00 | 93 | 1009.0 |
| 20260507004947 | 77 | 322 | 0.0 | 0.0 | 0.00 | 0.00 | 0.00 | 93 | 1009.0 |
| 20260507004446 | 77 | 322 | 0.0 | 0.0 | 0.00 | 0.00 | 0.00 | 93 | 1009.0 |
| 20260507003947 | 77 | 322 | 0.0 | 0.0 | 0.00 | 0.00 | 0.00 | 94 | 1009.0 |
| 20260507003447 | 77 | 321 | 0.0 | 0.0 | 0.00 | 0.00 | 0.00 | 94 | 1009.0 |
| 20260507002948 | 77 | 321 | 0.0 | 0.0 | 0.00 | 0.00 | 0.00 | 94 | 1009.0 |
| 20260507002446 | 77 | 321 | 0.0 | 0.0 | 0.00 | 0.00 | 0.00 | 94 | 1009.0 |
| 20260507001946 | 77 | 321 | 1.0 | 1.0 | 0.00 | 0.00 | 0.00 | 94 | 1009.0 |
| 20260507001446 | 77 | 322 | 0.0 | 1.0 | 0.00 | 0.00 | 0.00 | 94 | 1009.0 |
| 20260507000946 | 77 | 322 | 0.0 | 0.0 | 0.00 | 0.00 | 0.00 | 94 | 1009.0 |
| 20260507000446 | 77 | 322 | 1.0 | 1.0 | 0.00 | 0.00 | 0.00 | 95 | 1008.0 |
| 20260506235946 | 77 | 322 | 0.0 | 1.0 | 0.00 | 0.00 | 0.00 | 95 | 1009.0 |
| 20260506235446 | 77 | 276 | 2.0 | 2.0 | 0.00 | 0.00 | 0.00 | 95 | 1008.0 |
| 20260506234947 | 77 | 252 | 1.0 | 1.0 | 0.00 | 0.00 | 0.00 | 95 | 1008.0 |
| 20260506234453 | 77 | 231 | 0.0 | 0.0 | 0.00 | 0.00 | 0.00 | 95 | 1008.0 |
| 20260506233946 | 77 | 231 | 0.0 | 1.0 | 0.00 | 0.00 | 0.00 | 95 | 1008.0 |
| 20260506233446 | 77 | 231 | 0.0 | 0.0 | 0.00 | 0.00 | 0.00 | 95 | 1008.0 |
| 20260506232955 | 77 | 231 | 0.0 | 1.0 | 0.00 | 0.00 | 0.00 | 95 | 1008.0 |
| 20260506232446 | 77 | 231 | 1.0 | 1.0 | 0.00 | 0.00 | 0.00 | 95 | 1008.0 |
| 20260506231946 | 77 | 231 | 0.0 | 0.0 | 0.00 | 0.00 | 0.00 | 95 | 1008.0 |
| 20260506231451 | 77 | 231 | 0.0 | 0.0 | 0.00 | 0.00 | 0.00 | 95 | 1008.0 |
| 20260506230951 | 77 | 231 | 0.0 | 0.0 | 0.00 | 0.00 | 0.00 | 95 | 1008.0 |
| 20260506230447 | 77 | 231 | 0.0 | 0.0 | 0.00 | 0.00 | 0.00 | 95 | 1008.0 |
| 20260506225947 | 77 | 231 | 0.0 | 0.0 | 0.00 | 0.00 | 0.00 | 95 | 1008.0 |
| 20260506225446 | 77 | 231 | 0.0 | 0.0 | 0.00 | 0.00 | 0.00 | 95 | 1008.0 |
| 20260506224946 | 77 | 231 | 0.0 | 0.0 | 0.00 | 0.00 | 0.00 | 96 | 1008.0 |
| 20260506224446 | 77 | 231 | 0.0 | 1.0 | 0.00 | 0.00 | 0.00 | 96 | 1008.0 |
| 20260506223947 | 76 | 231 | 1.0 | 1.0 | 0.00 | 0.00 | 0.00 | 96 | 1008.0 |
| 20260506223446 | 77 | 230 | 0.0 | 1.0 | 0.00 | 0.00 | 0.00 | 95 | 1008.0 |